sensor_id;sensor_type;location;lat;lon;timestamp;pressure;altitude;pressure_sealevel;temperature;humidity
12868;BME280;33517;49.866;8.320;2023-06-19T00:00:52;99879.28;;;23.98;52.22
12868;BME280;33517;49.866;8.320;2023-06-19T00:03:44;99870.19;;;24.14;50.91
12868;BME280;33517;49.866;8.320;2023-06-19T00:06:37;99869.13;;;24.25;49.75
12868;BME280;33517;49.866;8.320;2023-06-19T00:09:29;99879.63;;;24.26;48.83
12868;BME280;33517;49.866;8.320;2023-06-19T00:12:21;99880.41;;;24.27;47.55
12868;BME280;33517;49.866;8.320;2023-06-19T00:15:13;99890.13;;;24.23;47.25
12868;BME280;33517;49.866;8.320;2023-06-19T00:18:05;99902.72;;;24.17;47.56
12868;BME280;33517;49.866;8.320;2023-06-19T00:20:57;99915.34;;;24.07;47.67
12868;BME280;33517;49.866;8.320;2023-06-19T00:23:50;99893.50;;;23.93;48.27
12868;BME280;33517;49.866;8.320;2023-06-19T00:26:42;99893.22;;;23.95;48.05
12868;BME280;33517;49.866;8.320;2023-06-19T00:29:34;99886.56;;;24.02;47.86
12868;BME280;33517;49.866;8.320;2023-06-19T00:32:26;99880.38;;;24.07;47.95
12868;BME280;33517;49.866;8.320;2023-06-19T00:35:18;99880.94;;;24.04;47.71
12868;BME280;33517;49.866;8.320;2023-06-19T00:38:09;99887.59;;;24.01;47.72
12868;BME280;33517;49.866;8.320;2023-06-19T00:41:04;99883.84;;;23.97;48.03
12868;BME280;33517;49.866;8.320;2023-06-19T00:43:56;99885.16;;;23.90;48.27
12868;BME280;33517;49.866;8.320;2023-06-19T00:46:51;99884.88;;;23.91;48.03
12868;BME280;33517;49.866;8.320;2023-06-19T00:49:46;99884.88;;;23.91;47.81
12868;BME280;33517;49.866;8.320;2023-06-19T00:52:38;99878.66;;;23.70;50.64
12868;BME280;33517;49.866;8.320;2023-06-19T00:55:32;99869.44;;;23.51;50.37
12868;BME280;33517;49.866;8.320;2023-06-19T00:58:26;99859.75;;;23.45;50.16
12868;BME280;33517;49.866;8.320;2023-06-19T01:01:19;99862.66;;;23.39;50.40
12868;BME280;33517;49.866;8.320;2023-06-19T01:04:12;99860.41;;;23.26;50.95
12868;BME280;33517;49.866;8.320;2023-06-19T01:07:07;99864.34;;;23.08;51.67
12868;BME280;33517;49.866;8.320;2023-06-19T01:10:02;99861.06;;;22.96;51.68
12868;BME280;33517;49.866;8.320;2023-06-19T01:13:00;99868.47;;;22.79;51.90
12868;BME280;33517;49.866;8.320;2023-06-19T01:15:54;99864.59;;;22.65;52.11
12868;BME280;33517;49.866;8.320;2023-06-19T01:18:48;99869.81;;;22.50;52.80
12868;BME280;33517;49.866;8.320;2023-06-19T01:21:40;99878.28;;;22.37;53.03
12868;BME280;33517;49.866;8.320;2023-06-19T01:24:33;99869.06;;;22.28;53.30
12868;BME280;33517;49.866;8.320;2023-06-19T01:27:26;99873.81;;;22.21;53.46
12868;BME280;33517;49.866;8.320;2023-06-19T01:30:20;99885.56;;;22.15;53.77
12868;BME280;33517;49.866;8.320;2023-06-19T01:33:15;99911.88;;;22.18;53.47
12868;BME280;33517;49.866;8.320;2023-06-19T01:36:12;99920.63;;;22.35;54.27
12868;BME280;33517;49.866;8.320;2023-06-19T01:39:05;99927.25;;;22.54;53.49
12868;BME280;33517;49.866;8.320;2023-06-19T01:41:59;99922.13;;;22.79;53.44
12868;BME280;33517;49.866;8.320;2023-06-19T01:44:51;99925.47;;;22.96;52.63
12868;BME280;33517;49.866;8.320;2023-06-19T01:47:44;99919.31;;;23.01;52.35
12868;BME280;33517;49.866;8.320;2023-06-19T01:50:36;99920.56;;;22.88;53.23
12868;BME280;33517;49.866;8.320;2023-06-19T01:53:30;99933.41;;;22.81;53.42
12868;BME280;33517;49.866;8.320;2023-06-19T01:56:21;99925.28;;;22.71;53.18
12868;BME280;33517;49.866;8.320;2023-06-19T01:59:16;99940.06;;;22.73;52.71
12868;BME280;33517;49.866;8.320;2023-06-19T02:02:07;99938.88;;;22.64;52.97
12868;BME280;33517;49.866;8.320;2023-06-19T02:04:59;99950.22;;;22.45;54.25
12868;BME280;33517;49.866;8.320;2023-06-19T02:07:51;99942.00;;;22.30;54.54
12868;BME280;33517;49.866;8.320;2023-06-19T02:10:43;99944.38;;;22.26;54.79
12868;BME280;33517;49.866;8.320;2023-06-19T02:13:35;99948.06;;;22.20;54.73
12868;BME280;33517;49.866;8.320;2023-06-19T02:16:28;99941.66;;;22.21;54.56
12868;BME280;33517;49.866;8.320;2023-06-19T02:19:20;99940.09;;;22.25;54.93
12868;BME280;33517;49.866;8.320;2023-06-19T02:22:13;99936.25;;;22.43;55.06
12868;BME280;33517;49.866;8.320;2023-06-19T02:25:05;99941.63;;;22.69;54.02
12868;BME280;33517;49.866;8.320;2023-06-19T02:27:57;99939.09;;;22.89;54.55
12868;BME280;33517;49.866;8.320;2023-06-19T02:30:49;99939.50;;;23.08;53.73
12868;BME280;33517;49.866;8.320;2023-06-19T02:33:42;99938.81;;;23.23;53.33
12868;BME280;33517;49.866;8.320;2023-06-19T02:36:35;99945.88;;;23.34;52.48
12868;BME280;33517;49.866;8.320;2023-06-19T02:39:27;99941.34;;;23.39;52.48
12868;BME280;33517;49.866;8.320;2023-06-19T02:42:19;99944.09;;;23.44;52.12
12868;BME280;33517;49.866;8.320;2023-06-19T02:45:10;99949.47;;;23.44;52.97
12868;BME280;33517;49.866;8.320;2023-06-19T02:48:04;99942.44;;;23.43;53.04
12868;BME280;33517;49.866;8.320;2023-06-19T02:50:57;99937.91;;;23.44;53.15
12868;BME280;33517;49.866;8.320;2023-06-19T02:53:49;99951.78;;;23.31;54.12
12868;BME280;33517;49.866;8.320;2023-06-19T02:56:41;99947.13;;;23.21;53.77
12868;BME280;33517;49.866;8.320;2023-06-19T02:59:33;99960.19;;;23.08;54.51
12868;BME280;33517;49.866;8.320;2023-06-19T03:02:25;99967.34;;;22.97;55.19
12868;BME280;33517;49.866;8.320;2023-06-19T03:05:16;99982.00;;;22.84;55.98
12868;BME280;33517;49.866;8.320;2023-06-19T03:08:09;99987.06;;;22.54;59.50
12868;BME280;33517;49.866;8.320;2023-06-19T03:11:02;99991.47;;;22.17;61.07
12868;BME280;33517;49.866;8.320;2023-06-19T03:13:56;99994.59;;;21.87;62.04
12868;BME280;33517;49.866;8.320;2023-06-19T03:16:48;99996.50;;;21.92;60.96
12868;BME280;33517;49.866;8.320;2023-06-19T03:19:40;100005.88;;;22.11;59.65
12868;BME280;33517;49.866;8.320;2023-06-19T03:22:31;100016.59;;;22.11;59.35
12868;BME280;33517;49.866;8.320;2023-06-19T03:25:25;100025.56;;;22.22;58.70
12868;BME280;33517;49.866;8.320;2023-06-19T03:28:17;100023.47;;;22.24;58.40
12868;BME280;33517;49.866;8.320;2023-06-19T03:31:09;100032.28;;;22.24;58.10
12868;BME280;33517;49.866;8.320;2023-06-19T03:34:00;100041.97;;;22.25;58.11
12868;BME280;33517;49.866;8.320;2023-06-19T03:36:52;100052.69;;;22.25;57.79
12868;BME280;33517;49.866;8.320;2023-06-19T03:39:44;100052.19;;;22.28;57.75
12868;BME280;33517;49.866;8.320;2023-06-19T03:42:37;100051.34;;;22.28;57.63
12868;BME280;33517;49.866;8.320;2023-06-19T03:45:29;100059.19;;;22.29;57.49
12868;BME280;33517;49.866;8.320;2023-06-19T03:48:21;100060.09;;;22.40;56.83
12868;BME280;33517;49.866;8.320;2023-06-19T03:51:13;100052.03;;;22.56;56.36
12868;BME280;33517;49.866;8.320;2023-06-19T03:54:05;100060.47;;;22.70;55.92
12868;BME280;33517;49.866;8.320;2023-06-19T03:56:56;100058.16;;;22.78;55.58
12868;BME280;33517;49.866;8.320;2023-06-19T03:59:50;100070.47;;;22.79;55.69
12868;BME280;33517;49.866;8.320;2023-06-19T04:02:44;100076.66;;;22.80;56.12
12868;BME280;33517;49.866;8.320;2023-06-19T04:05:36;100069.22;;;22.60;56.98
12868;BME280;33517;49.866;8.320;2023-06-19T04:08:29;100073.38;;;22.51;57.25
12868;BME280;33517;49.866;8.320;2023-06-19T04:11:21;100077.44;;;22.54;57.01
12868;BME280;33517;49.866;8.320;2023-06-19T04:14:13;100079.69;;;22.40;59.24
12868;BME280;33517;49.866;8.320;2023-06-19T04:17:06;100076.94;;;22.35;58.85
12868;BME280;33517;49.866;8.320;2023-06-19T04:19:58;100077.94;;;22.29;59.74
12868;BME280;33517;49.866;8.320;2023-06-19T04:22:50;100085.31;;;22.39;59.54
12868;BME280;33517;49.866;8.320;2023-06-19T04:25:41;100074.28;;;22.35;61.45
12868;BME280;33517;49.866;8.320;2023-06-19T04:28:33;100084.78;;;22.42;60.57
12868;BME280;33517;49.866;8.320;2023-06-19T04:31:25;100093.59;;;22.80;58.09
12868;BME280;33517;49.866;8.320;2023-06-19T04:34:18;100090.72;;;23.14;56.72
12868;BME280;33517;49.866;8.320;2023-06-19T04:37:11;100085.25;;;23.30;57.03
12868;BME280;33517;49.866;8.320;2023-06-19T04:40:04;100089.97;;;23.50;55.59
12868;BME280;33517;49.866;8.320;2023-06-19T04:42:58;100081.19;;;23.64;55.36
12868;BME280;33517;49.866;8.320;2023-06-19T04:45:50;100083.97;;;23.74;55.40
12868;BME280;33517;49.866;8.320;2023-06-19T04:48:42;100087.25;;;23.87;54.82
12868;BME280;33517;49.866;8.320;2023-06-19T04:51:35;100085.81;;;24.06;54.96
12868;BME280;33517;49.866;8.320;2023-06-19T04:54:27;100091.75;;;24.13;55.37
12868;BME280;33517;49.866;8.320;2023-06-19T04:57:19;100083.97;;;24.21;55.14
12868;BME280;33517;49.866;8.320;2023-06-19T05:00:11;100082.38;;;24.20;56.34
12868;BME280;33517;49.866;8.320;2023-06-19T05:03:05;100093.69;;;24.22;56.97
12868;BME280;33517;49.866;8.320;2023-06-19T05:05:57;100099.06;;;24.22;56.68
12868;BME280;33517;49.866;8.320;2023-06-19T05:08:50;100094.03;;;24.41;55.74
12868;BME280;33517;49.866;8.320;2023-06-19T05:11:43;100102.09;;;24.46;56.12
12868;BME280;33517;49.866;8.320;2023-06-19T05:14:34;100100.22;;;24.41;55.81
12868;BME280;33517;49.866;8.320;2023-06-19T05:17:26;100101.00;;;24.37;57.39
12868;BME280;33517;49.866;8.320;2023-06-19T05:20:18;100104.00;;;24.45;57.73
12868;BME280;33517;49.866;8.320;2023-06-19T05:23:10;100113.13;;;24.39;57.15
12868;BME280;33517;49.866;8.320;2023-06-19T05:26:04;100120.72;;;24.52;57.25
12868;BME280;33517;49.866;8.320;2023-06-19T05:28:56;100122.34;;;24.53;57.58
12868;BME280;33517;49.866;8.320;2023-06-19T05:31:47;100108.13;;;24.68;56.79
12868;BME280;33517;49.866;8.320;2023-06-19T05:34:39;100118.88;;;24.63;57.55
12868;BME280;33517;49.866;8.320;2023-06-19T05:37:31;100122.72;;;24.77;56.65
12868;BME280;33517;49.866;8.320;2023-06-19T05:40:23;100129.06;;;24.51;59.25
12868;BME280;33517;49.866;8.320;2023-06-19T05:43:16;100127.63;;;24.38;60.18
12868;BME280;33517;49.866;8.320;2023-06-19T05:46:09;100121.75;;;24.41;60.02
12868;BME280;33517;49.866;8.320;2023-06-19T05:49:02;100124.06;;;24.80;58.75
12868;BME280;33517;49.866;8.320;2023-06-19T05:51:54;100120.94;;;25.38;57.00
12868;BME280;33517;49.866;8.320;2023-06-19T05:54:50;100121.22;;;25.51;55.84
12868;BME280;33517;49.866;8.320;2023-06-19T05:57:42;100124.19;;;25.80;55.36
12868;BME280;33517;49.866;8.320;2023-06-19T06:00:35;100140.09;;;25.67;55.62
12868;BME280;33517;49.866;8.320;2023-06-19T06:03:27;100138.22;;;25.57;53.66
12868;BME280;33517;49.866;8.320;2023-06-19T06:06:22;100147.91;;;25.83;54.68
12868;BME280;33517;49.866;8.320;2023-06-19T06:09:14;100142.81;;;25.82;52.12
12868;BME280;33517;49.866;8.320;2023-06-19T06:12:07;100163.84;;;25.54;56.23
12868;BME280;33517;49.866;8.320;2023-06-19T06:15:00;100164.38;;;25.72;56.02
12868;BME280;33517;49.866;8.320;2023-06-19T06:17:53;100162.22;;;25.74;56.25
12868;BME280;33517;49.866;8.320;2023-06-19T06:20:45;100159.53;;;25.84;56.73
12868;BME280;33517;49.866;8.320;2023-06-19T06:23:37;100165.16;;;26.07;55.82
12868;BME280;33517;49.866;8.320;2023-06-19T06:26:28;100165.22;;;26.86;51.30
12868;BME280;33517;49.866;8.320;2023-06-19T06:29:20;100167.97;;;27.64;49.63
12868;BME280;33517;49.866;8.320;2023-06-19T06:32:12;100170.34;;;29.73;44.68
12868;BME280;33517;49.866;8.320;2023-06-19T06:35:06;100170.88;;;29.00;46.02
12868;BME280;33517;49.866;8.320;2023-06-19T06:37:58;100160.94;;;30.57;44.33
12868;BME280;33517;49.866;8.320;2023-06-19T06:40:50;100161.56;;;31.52;41.67
12868;BME280;33517;49.866;8.320;2023-06-19T06:43:42;100176.88;;;32.45;40.13
12868;BME280;33517;49.866;8.320;2023-06-19T06:46:34;100173.69;;;33.77;37.23
12868;BME280;33517;49.866;8.320;2023-06-19T06:49:26;100176.69;;;34.85;35.64
12868;BME280;33517;49.866;8.320;2023-06-19T06:52:19;100173.72;;;35.19;34.24
12868;BME280;33517;49.866;8.320;2023-06-19T06:55:11;100169.34;;;33.16;37.15
12868;BME280;33517;49.866;8.320;2023-06-19T06:58:03;100173.03;;;33.97;36.40
12868;BME280;33517;49.866;8.320;2023-06-19T07:00:55;100171.84;;;34.15;36.20
12868;BME280;33517;49.866;8.320;2023-06-19T07:03:47;100178.97;;;33.82;36.05
12868;BME280;33517;49.866;8.320;2023-06-19T07:06:39;100174.75;;;34.01;36.02
12868;BME280;33517;49.866;8.320;2023-06-19T07:09:32;100169.69;;;33.74;35.37
12868;BME280;33517;49.866;8.320;2023-06-19T07:12:24;100174.75;;;32.90;36.90
12868;BME280;33517;49.866;8.320;2023-06-19T07:15:16;100174.63;;;32.95;36.48
12868;BME280;33517;49.866;8.320;2023-06-19T07:18:08;100182.34;;;32.45;38.27
12868;BME280;33517;49.866;8.320;2023-06-19T07:21:01;100191.19;;;32.29;39.14
12868;BME280;33517;49.866;8.320;2023-06-19T07:23:53;100188.22;;;31.64;39.77
12868;BME280;33517;49.866;8.320;2023-06-19T07:26:46;100192.56;;;32.09;39.32
12868;BME280;33517;49.866;8.320;2023-06-19T07:29:38;100191.53;;;33.31;36.71
12868;BME280;33517;49.866;8.320;2023-06-19T07:32:30;100202.66;;;34.99;33.12
12868;BME280;33517;49.866;8.320;2023-06-19T07:35:22;100206.94;;;35.30;33.01
12868;BME280;33517;49.866;8.320;2023-06-19T07:38:14;100208.94;;;34.91;33.86
12868;BME280;33517;49.866;8.320;2023-06-19T07:41:06;100209.28;;;34.61;33.75
12868;BME280;33517;49.866;8.320;2023-06-19T07:44:01;100202.66;;;35.20;32.82
12868;BME280;33517;49.866;8.320;2023-06-19T07:46:53;100204.41;;;36.79;31.92
12868;BME280;33517;49.866;8.320;2023-06-19T07:49:45;100204.50;;;37.19;30.93
12868;BME280;33517;49.866;8.320;2023-06-19T07:52:37;100211.34;;;37.13;32.08
12868;BME280;33517;49.866;8.320;2023-06-19T07:55:28;100208.03;;;37.32;31.13
12868;BME280;33517;49.866;8.320;2023-06-19T07:58:20;100218.47;;;37.54;30.94
12868;BME280;33517;49.866;8.320;2023-06-19T08:01:14;100227.13;;;37.28;31.03
12868;BME280;33517;49.866;8.320;2023-06-19T08:04:06;100222.91;;;35.69;33.43
12868;BME280;33517;49.866;8.320;2023-06-19T08:06:58;100227.59;;;37.18;31.63
12868;BME280;33517;49.866;8.320;2023-06-19T08:09:50;100221.63;;;35.54;32.72
12868;BME280;33517;49.866;8.320;2023-06-19T08:12:42;100226.03;;;37.05;31.57
12868;BME280;33517;49.866;8.320;2023-06-19T08:15:34;100224.41;;;39.78;28.98
12868;BME280;33517;49.866;8.320;2023-06-19T08:18:28;100224.72;;;38.84;29.36
12868;BME280;33517;49.866;8.320;2023-06-19T08:21:19;100220.28;;;40.29;26.65
12868;BME280;33517;49.866;8.320;2023-06-19T08:24:12;100223.72;;;38.92;28.46
12868;BME280;33517;49.866;8.320;2023-06-19T08:27:04;100226.00;;;34.97;33.66
12868;BME280;33517;49.866;8.320;2023-06-19T08:29:56;100220.69;;;33.14;36.15
12868;BME280;33517;49.866;8.320;2023-06-19T08:32:48;100230.91;;;34.36;35.04
12868;BME280;33517;49.866;8.320;2023-06-19T08:35:41;100234.38;;;33.39;36.99
12868;BME280;33517;49.866;8.320;2023-06-19T08:38:34;100227.28;;;34.15;35.69
12868;BME280;33517;49.866;8.320;2023-06-19T08:41:26;100230.31;;;35.27;33.75
12868;BME280;33517;49.866;8.320;2023-06-19T08:44:18;100228.53;;;36.74;31.58
12868;BME280;33517;49.866;8.320;2023-06-19T08:47:10;100226.38;;;37.55;29.53
12868;BME280;33517;49.866;8.320;2023-06-19T08:50:02;100226.97;;;34.92;32.77
12868;BME280;33517;49.866;8.320;2023-06-19T08:52:56;100225.44;;;34.45;33.44
12868;BME280;33517;49.866;8.320;2023-06-19T08:55:48;100225.09;;;35.96;32.33
12868;BME280;33517;49.866;8.320;2023-06-19T08:58:41;100218.34;;;35.32;32.40
12868;BME280;33517;49.866;8.320;2023-06-19T09:01:33;100218.47;;;33.93;34.48
12868;BME280;33517;49.866;8.320;2023-06-19T09:04:26;100223.69;;;34.32;34.06
12868;BME280;33517;49.866;8.320;2023-06-19T09:07:18;100227.84;;;32.45;37.63
12868;BME280;33517;49.866;8.320;2023-06-19T09:10:17;100239.22;;;32.16;37.83
12868;BME280;33517;49.866;8.320;2023-06-19T09:13:09;100228.59;;;33.92;36.97
12868;BME280;33517;49.866;8.320;2023-06-19T09:16:04;100231.06;;;36.91;31.94
12868;BME280;33517;49.866;8.320;2023-06-19T09:18:56;100238.03;;;37.13;31.99
12868;BME280;33517;49.866;8.320;2023-06-19T09:21:48;100239.31;;;35.07;33.00
12868;BME280;33517;49.866;8.320;2023-06-19T09:24:40;100233.41;;;33.78;34.34
12868;BME280;33517;49.866;8.320;2023-06-19T09:27:34;100229.91;;;33.61;35.08
12868;BME280;33517;49.866;8.320;2023-06-19T09:30:26;100232.38;;;32.49;36.37
12868;BME280;33517;49.866;8.320;2023-06-19T09:33:18;100227.31;;;33.30;35.48
12868;BME280;33517;49.866;8.320;2023-06-19T09:36:10;100229.44;;;32.77;35.90
12868;BME280;33517;49.866;8.320;2023-06-19T09:39:02;100228.44;;;35.81;32.54
12868;BME280;33517;49.866;8.320;2023-06-19T09:41:55;100232.28;;;38.72;29.14
12868;BME280;33517;49.866;8.320;2023-06-19T09:44:51;100226.38;;;37.55;29.95
12868;BME280;33517;49.866;8.320;2023-06-19T09:47:47;100224.47;;;34.50;33.73
12868;BME280;33517;49.866;8.320;2023-06-19T09:50:44;100229.69;;;36.97;31.10
12868;BME280;33517;49.866;8.320;2023-06-19T09:53:37;100224.22;;;36.16;31.24
12868;BME280;33517;49.866;8.320;2023-06-19T09:56:31;100218.97;;;33.86;34.43
12868;BME280;33517;49.866;8.320;2023-06-19T09:59:23;100220.53;;;33.19;35.37
12868;BME280;33517;49.866;8.320;2023-06-19T10:02:16;100213.78;;;32.21;36.98
12868;BME280;33517;49.866;8.320;2023-06-19T10:05:08;100219.75;;;33.18;36.18
12868;BME280;33517;49.866;8.320;2023-06-19T10:08:03;100218.56;;;34.30;33.68
12868;BME280;33517;49.866;8.320;2023-06-19T10:10:55;100216.88;;;34.55;33.52
12868;BME280;33517;49.866;8.320;2023-06-19T10:13:47;100216.28;;;34.79;32.95
12868;BME280;33517;49.866;8.320;2023-06-19T10:16:40;100214.16;;;34.00;34.95
12868;BME280;33517;49.866;8.320;2023-06-19T10:19:33;100209.16;;;34.86;33.49
12868;BME280;33517;49.866;8.320;2023-06-19T10:22:30;100218.78;;;34.92;33.13
12868;BME280;33517;49.866;8.320;2023-06-19T10:25:22;100224.03;;;35.27;32.64
12868;BME280;33517;49.866;8.320;2023-06-19T10:28:19;100215.34;;;35.66;32.93
12868;BME280;33517;49.866;8.320;2023-06-19T10:31:11;100217.59;;;36.50;30.91
12868;BME280;33517;49.866;8.320;2023-06-19T10:34:03;100210.50;;;35.30;33.00
12868;BME280;33517;49.866;8.320;2023-06-19T10:36:57;100203.50;;;34.16;34.33
12868;BME280;33517;49.866;8.320;2023-06-19T10:39:49;100210.00;;;33.52;35.37
12868;BME280;33517;49.866;8.320;2023-06-19T10:42:41;100204.22;;;32.32;37.16
12868;BME280;33517;49.866;8.320;2023-06-19T10:45:33;100204.94;;;32.94;36.56
12868;BME280;33517;49.866;8.320;2023-06-19T10:48:26;100203.56;;;33.39;35.50
12868;BME280;33517;49.866;8.320;2023-06-19T10:51:18;100197.97;;;33.53;34.73
12868;BME280;33517;49.866;8.320;2023-06-19T10:54:11;100202.94;;;33.68;34.24
12868;BME280;33517;49.866;8.320;2023-06-19T10:57:04;100202.00;;;32.82;36.31
12868;BME280;33517;49.866;8.320;2023-06-19T10:59:56;100202.97;;;32.07;37.70
12868;BME280;33517;49.866;8.320;2023-06-19T11:02:48;100202.78;;;32.04;37.75
12868;BME280;33517;49.866;8.320;2023-06-19T11:05:43;100194.97;;;32.11;37.59
12868;BME280;33517;49.866;8.320;2023-06-19T11:08:35;100180.72;;;33.09;36.41
12868;BME280;33517;49.866;8.320;2023-06-19T11:11:40;100181.56;;;34.71;34.42
12868;BME280;33517;49.866;8.320;2023-06-19T11:14:32;100181.94;;;36.86;32.24
12868;BME280;33517;49.866;8.320;2023-06-19T11:17:30;100173.19;;;37.08;30.14
12868;BME280;33517;49.866;8.320;2023-06-19T11:20:22;100176.41;;;36.98;29.81
12868;BME280;33517;49.866;8.320;2023-06-19T11:23:15;100173.72;;;37.53;29.13
12868;BME280;33517;49.866;8.320;2023-06-19T11:26:07;100180.19;;;39.13;27.18
12868;BME280;33517;49.866;8.320;2023-06-19T11:29:01;100178.75;;;38.22;27.42
12868;BME280;33517;49.866;8.320;2023-06-19T11:32:05;100171.41;;;37.28;28.78
12868;BME280;33517;49.866;8.320;2023-06-19T11:34:57;100166.28;;;37.26;28.35
12868;BME280;33517;49.866;8.320;2023-06-19T11:37:49;100172.41;;;37.47;28.42
12868;BME280;33517;49.866;8.320;2023-06-19T11:40:41;100177.63;;;38.54;26.77
12868;BME280;33517;49.866;8.320;2023-06-19T11:43:35;100175.88;;;38.97;25.66
12868;BME280;33517;49.866;8.320;2023-06-19T11:46:31;100174.19;;;39.88;24.80
12868;BME280;33517;49.866;8.320;2023-06-19T11:49:23;100171.28;;;40.45;25.52
12868;BME280;33517;49.866;8.320;2023-06-19T11:52:15;100167.00;;;39.07;24.92
12868;BME280;33517;49.866;8.320;2023-06-19T11:55:08;100164.59;;;38.86;25.93
12868;BME280;33517;49.866;8.320;2023-06-19T11:58:00;100163.28;;;39.34;25.71
12868;BME280;33517;49.866;8.320;2023-06-19T12:00:53;100170.22;;;38.74;25.97
12868;BME280;33517;49.866;8.320;2023-06-19T12:03:48;100173.50;;;40.13;25.19
12868;BME280;33517;49.866;8.320;2023-06-19T12:06:40;100178.16;;;40.32;23.73
12868;BME280;33517;49.866;8.320;2023-06-19T12:09:31;100177.63;;;39.43;24.76
12868;BME280;33517;49.866;8.320;2023-06-19T12:12:23;100176.97;;;40.33;24.85
12868;BME280;33517;49.866;8.320;2023-06-19T12:15:16;100166.63;;;38.70;24.62
12868;BME280;33517;49.866;8.320;2023-06-19T12:18:08;100158.97;;;39.14;25.21
12868;BME280;33517;49.866;8.320;2023-06-19T12:21:04;100150.81;;;39.59;24.14
12868;BME280;33517;49.866;8.320;2023-06-19T12:23:55;100143.91;;;37.67;25.88
12868;BME280;33517;49.866;8.320;2023-06-19T12:26:47;100136.44;;;36.73;27.35
12868;BME280;33517;49.866;8.320;2023-06-19T12:29:39;100138.94;;;36.54;27.61
12868;BME280;33517;49.866;8.320;2023-06-19T12:32:31;100136.34;;;35.23;28.14
12868;BME280;33517;49.866;8.320;2023-06-19T12:35:23;100132.97;;;34.47;29.89
12868;BME280;33517;49.866;8.320;2023-06-19T12:38:17;100138.94;;;34.41;29.88
12868;BME280;33517;49.866;8.320;2023-06-19T12:41:09;100138.66;;;33.87;30.38
12868;BME280;33517;49.866;8.320;2023-06-19T12:44:01;100144.97;;;33.54;31.43
12868;BME280;33517;49.866;8.320;2023-06-19T12:46:53;100146.25;;;33.56;31.11
12868;BME280;33517;49.866;8.320;2023-06-19T12:49:45;100137.69;;;32.72;31.88
12868;BME280;33517;49.866;8.320;2023-06-19T12:52:36;100152.53;;;32.49;32.73
12868;BME280;33517;49.866;8.320;2023-06-19T12:55:30;100134.75;;;32.51;32.12
12868;BME280;33517;49.866;8.320;2023-06-19T12:58:21;100136.78;;;33.02;31.64
12868;BME280;33517;49.866;8.320;2023-06-19T13:01:13;100133.84;;;32.90;31.59
12868;BME280;33517;49.866;8.320;2023-06-19T13:04:05;100135.00;;;32.98;31.18
12868;BME280;33517;49.866;8.320;2023-06-19T13:06:57;100141.59;;;32.97;31.72
12868;BME280;33517;49.866;8.320;2023-06-19T13:09:49;100136.13;;;32.97;31.61
12868;BME280;33517;49.866;8.320;2023-06-19T13:12:42;100130.00;;;32.91;32.17
12868;BME280;33517;49.866;8.320;2023-06-19T13:15:34;100127.97;;;32.97;31.36
12868;BME280;33517;49.866;8.320;2023-06-19T13:18:26;100129.47;;;32.63;31.77
12868;BME280;33517;49.866;8.320;2023-06-19T13:21:18;100122.63;;;32.83;31.36
12868;BME280;33517;49.866;8.320;2023-06-19T13:24:11;100122.34;;;33.27;31.22
12868;BME280;33517;49.866;8.320;2023-06-19T13:27:03;100122.03;;;33.03;30.34
12868;BME280;33517;49.866;8.320;2023-06-19T13:29:56;100115.88;;;32.72;31.86
12868;BME280;33517;49.866;8.320;2023-06-19T13:32:48;100124.09;;;32.02;32.10
12868;BME280;33517;49.866;8.320;2023-06-19T13:35:40;100117.13;;;32.18;31.95
12868;BME280;33517;49.866;8.320;2023-06-19T13:38:32;100114.34;;;32.01;32.01
12868;BME280;33517;49.866;8.320;2023-06-19T13:41:24;100113.00;;;31.90;32.87
12868;BME280;33517;49.866;8.320;2023-06-19T13:44:16;100111.78;;;31.96;32.62
12868;BME280;33517;49.866;8.320;2023-06-19T13:47:09;100116.09;;;31.97;32.00
12868;BME280;33517;49.866;8.320;2023-06-19T13:50:01;100108.53;;;31.63;32.47
12868;BME280;33517;49.866;8.320;2023-06-19T13:52:53;100104.75;;;31.73;32.82
12868;BME280;33517;49.866;8.320;2023-06-19T13:55:45;100101.69;;;31.74;32.23
12868;BME280;33517;49.866;8.320;2023-06-19T13:58:37;100096.75;;;31.54;32.81
12868;BME280;33517;49.866;8.320;2023-06-19T14:01:29;100088.09;;;31.74;33.50
12868;BME280;33517;49.866;8.320;2023-06-19T14:04:22;100083.16;;;32.07;32.81
12868;BME280;33517;49.866;8.320;2023-06-19T14:07:14;100084.50;;;32.27;32.52
12868;BME280;33517;49.866;8.320;2023-06-19T14:10:08;100071.41;;;31.98;32.53
12868;BME280;33517;49.866;8.320;2023-06-19T14:13:00;100068.56;;;31.81;32.88
12868;BME280;33517;49.866;8.320;2023-06-19T14:15:52;100078.41;;;31.91;32.72
12868;BME280;33517;49.866;8.320;2023-06-19T14:18:44;100076.97;;;31.62;33.70
12868;BME280;33517;49.866;8.320;2023-06-19T14:21:37;100077.13;;;31.57;33.41
12868;BME280;33517;49.866;8.320;2023-06-19T14:24:29;100076.22;;;32.01;33.14
12868;BME280;33517;49.866;8.320;2023-06-19T14:27:21;100070.19;;;32.21;33.41
12868;BME280;33517;49.866;8.320;2023-06-19T14:30:13;100073.66;;;32.52;32.82
12868;BME280;33517;49.866;8.320;2023-06-19T14:33:05;100071.13;;;32.47;33.04
12868;BME280;33517;49.866;8.320;2023-06-19T14:36:00;100067.72;;;31.94;33.22
12868;BME280;33517;49.866;8.320;2023-06-19T14:38:55;100066.22;;;32.19;33.01
12868;BME280;33517;49.866;8.320;2023-06-19T14:41:47;100071.66;;;32.27;32.90
12868;BME280;33517;49.866;8.320;2023-06-19T14:44:38;100066.91;;;31.94;33.42
12868;BME280;33517;49.866;8.320;2023-06-19T14:47:30;100071.53;;;31.62;34.43
12868;BME280;33517;49.866;8.320;2023-06-19T14:50:22;100074.56;;;31.39;35.53
12868;BME280;33517;49.866;8.320;2023-06-19T14:53:14;100077.09;;;31.35;35.18
12868;BME280;33517;49.866;8.320;2023-06-19T14:56:07;100069.09;;;31.08;36.37
12868;BME280;33517;49.866;8.320;2023-06-19T14:58:59;100076.19;;;31.18;35.75
12868;BME280;33517;49.866;8.320;2023-06-19T15:01:51;100070.72;;;30.96;36.73
12868;BME280;33517;49.866;8.320;2023-06-19T15:04:43;100070.50;;;31.06;36.30